Time;durP1;ratioP1;P1;durP2;ratioP2;P2;SDS_P1;SDS_P2;PMS_P1;PMS_P2;Temp;Humidity;BMP_temperature;BMP_pressure;BME280_temperature;BME280_humidity;BME280_pressure;Samples;Min_cycle;Max_cycle;Signal;HPM_P1;HPM_P2
2024/04/02 00:01:24;;;;;;;2.20;0.80;;;11.70;89.30;;;;;;10191929;28;20214;-62
2024/04/02 00:06:28;;;;;;;1.83;0.73;;;11.70;89.90;;;;;;10195072;28;20234;-61
2024/04/02 00:11:31;;;;;;;2.05;1.00;;;11.70;89.40;;;;;;10190827;28;20300;-62
2024/04/02 00:16:34;;;;;;;1.58;0.95;;;11.70;88.40;;;;;;10191664;28;20230;-60
2024/04/02 00:21:38;;;;;;;1.80;0.70;;;11.70;88.80;;;;;;10195119;28;20281;-61
2024/04/02 00:26:40;;;;;;;1.88;0.70;;;11.70;89.70;;;;;;10194940;28;20222;-60
2024/04/02 00:31:43;;;;;;;2.95;1.00;;;11.70;88.70;;;;;;10193300;28;21010;-61
2024/04/02 00:36:47;;;;;;;1.55;0.80;;;11.80;89.00;;;;;;10193825;28;20238;-61
2024/04/02 00:41:49;;;;;;;4.53;1.00;;;11.80;89.00;;;;;;10198706;28;20289;-60
2024/04/02 00:46:52;;;;;;;1.27;0.75;;;11.80;89.10;;;;;;10203161;28;20550;-62
2024/04/02 00:51:57;;;;;;;4.05;0.80;;;11.80;89.20;;;;;;10201110;28;20677;-60
2024/04/02 00:56:59;;;;;;;1.48;0.80;;;11.80;88.60;;;;;;10200469;28;20233;-61
2024/04/02 01:02:03;;;;;;;3.70;1.20;;;11.70;88.50;;;;;;10200257;28;21318;-62
2024/04/02 01:07:07;;;;;;;2.03;0.85;;;11.70;88.60;;;;;;10199212;28;20230;-60
2024/04/02 01:12:11;;;;;;;3.67;0.90;;;11.70;88.80;;;;;;10198840;28;20673;-61
2024/04/02 01:17:15;;;;;;;3.38;0.80;;;11.60;88.40;;;;;;10199400;28;20302;-61
2024/04/02 01:22:20;;;;;;;2.00;0.93;;;11.60;89.10;;;;;;10201256;28;20254;-61
2024/04/02 01:27:24;;;;;;;1.08;0.80;;;11.50;88.30;;;;;;10198851;28;20222;-60
2024/04/02 01:32:26;;;;;;;3.22;0.90;;;11.40;88.40;;;;;;10200415;28;20639;-61
2024/04/02 01:37:29;;;;;;;3.08;0.90;;;11.40;88.40;;;;;;10199902;28;20296;-60
2024/04/02 01:42:33;;;;;;;3.50;1.00;;;11.40;89.00;;;;;;10199353;28;20206;-61
2024/04/02 01:47:35;;;;;;;2.95;0.70;;;11.30;88.60;;;;;;10199061;28;20230;-61
2024/04/02 01:52:38;;;;;;;2.17;0.80;;;11.30;89.10;;;;;;10199062;28;21082;-61
2024/04/02 01:57:42;;;;;;;2.20;0.73;;;11.20;89.20;;;;;;10198879;28;20239;-61
2024/04/02 02:02:44;;;;;;;2.38;0.98;;;11.20;89.80;;;;;;10195661;28;20275;-60
2024/04/02 02:07:47;;;;;;;4.40;1.15;;;11.20;88.90;;;;;;10197135;28;20327;-61
2024/04/02 02:12:51;;;;;;;3.17;1.00;;;11.20;89.40;;;;;;10199056;28;20222;-61
2024/04/02 02:17:54;;;;;;;2.03;0.95;;;11.20;90.00;;;;;;10198916;28;20300;-61
2024/04/02 02:22:56;;;;;;;3.85;0.90;;;11.20;89.30;;;;;;10195237;28;20328;-61
2024/04/02 02:28:00;;;;;;;3.25;0.77;;;11.10;89.20;;;;;;10196817;28;20955;-61
2024/04/02 02:33:03;;;;;;;1.17;0.70;;;11.20;89.30;;;;;;10198090;28;20770;-62
2024/04/02 02:38:06;;;;;;;2.33;1.05;;;11.20;89.90;;;;;;10198071;28;20234;-61
2024/04/02 02:43:11;;;;;;;3.92;0.93;;;11.20;89.00;;;;;;10196843;28;20715;-61
2024/04/02 02:48:14;;;;;;;4.10;0.98;;;11.20;88.70;;;;;;10195925;28;20359;-61
2024/04/02 02:53:18;;;;;;;2.60;0.88;;;11.20;89.20;;;;;;10196265;28;20214;-60
2024/04/02 02:58:22;;;;;;;2.85;0.85;;;11.10;88.90;;;;;;10249506;23;20256;-59
2024/04/02 03:03:25;;;;;;;1.77;0.80;;;11.10;89.20;;;;;;10238230;28;20214;-59
2024/04/02 03:08:27;;;;;;;2.60;1.02;;;11.10;89.90;;;;;;10210166;28;20307;-58
2024/04/02 03:13:32;;;;;;;3.47;0.82;;;11.10;89.30;;;;;;10199313;28;20261;-59
2024/04/02 03:18:34;;;;;;;2.60;1.10;;;11.10;88.90;;;;;;10199032;28;20246;-59
2024/04/02 03:23:37;;;;;;;2.08;0.90;;;11.10;89.30;;;;;;10199413;28;20265;-58
2024/04/02 03:28:41;;;;;;;3.33;1.20;;;11.20;89.90;;;;;;10197559;28;20226;-58
2024/04/02 03:33:44;;;;;;;1.92;1.05;;;11.20;89.70;;;;;;10200299;28;21583;-58
2024/04/02 03:38:47;;;;;;;3.80;0.80;;;11.20;89.40;;;;;;10198013;28;21585;-59
2024/04/02 03:43:50;;;;;;;3.22;1.05;;;11.10;89.20;;;;;;10197876;28;20218;-59
2024/04/02 03:48:53;;;;;;;1.30;0.88;;;11.10;89.30;;;;;;10199326;28;20315;-57
2024/04/02 03:53:56;;;;;;;2.50;1.00;;;11.10;89.10;;;;;;10198165;28;21515;-58
2024/04/02 03:59:00;;;;;;;1.23;0.93;;;11.00;89.70;;;;;;10198143;28;20728;-58
2024/04/02 04:04:03;;;;;;;4.32;0.98;;;11.00;90.00;;;;;;10199073;28;20818;-58
2024/04/02 04:09:08;;;;;;;2.10;1.10;;;11.00;89.40;;;;;;10197680;28;21505;-58
2024/04/02 04:14:12;;;;;;;3.83;1.00;;;11.00;89.50;;;;;;10201532;28;20210;-58
2024/04/02 04:19:14;;;;;;;2.35;0.90;;;11.00;89.70;;;;;;10200039;28;20233;-59
2024/04/02 04:24:17;;;;;;;2.53;0.80;;;11.00;89.80;;;;;;10197090;28;20872;-58
2024/04/02 04:29:24;;;;;;;2.60;0.90;;;11.00;89.80;;;;;;10198313;28;20242;-58
2024/04/02 04:34:26;;;;;;;1.98;1.10;;;11.00;90.00;;;;;;10199538;28;20264;-58
2024/04/02 04:39:29;;;;;;;1.38;0.80;;;11.00;89.90;;;;;;10199238;28;20355;-57
2024/04/02 04:44:33;;;;;;;3.90;0.98;;;11.00;90.00;;;;;;10211643;28;20755;-57
2024/04/02 04:49:35;;;;;;;1.90;0.95;;;11.00;90.00;;;;;;10246662;28;20642;-55
2024/04/02 04:54:38;;;;;;;1.48;1.00;;;11.00;89.80;;;;;;10247602;28;20218;-57
2024/04/02 04:59:42;;;;;;;3.90;1.20;;;11.00;90.20;;;;;;10250328;28;20268;-54
2024/04/02 05:04:44;;;;;;;3.67;1.10;;;11.00;90.00;;;;;;10253169;28;20665;-57
2024/04/02 05:09:47;;;;;;;2.83;1.13;;;11.00;90.00;;;;;;10248942;28;20238;-59
2024/04/02 05:14:51;;;;;;;2.58;1.30;;;11.00;90.00;;;;;;10249668;28;20218;-57
2024/04/02 05:19:58;;;;;;;4.88;1.40;;;11.10;90.30;;;;;;10250313;28;20292;-58
2024/04/02 05:25:00;;;;;;;3.97;1.40;;;11.10;90.40;;;;;;10254067;28;20222;-58
2024/04/02 05:30:05;;;;;;;3.80;1.20;;;11.10;90.10;;;;;;10261668;28;20321;-58
2024/04/02 05:35:07;;;;;;;3.00;1.70;;;11.10;90.30;;;;;;10257567;28;20302;-58
2024/04/02 05:40:10;;;;;;;5.60;1.63;;;11.00;90.50;;;;;;10252687;28;20288;-56
2024/04/02 05:45:15;;;;;;;4.90;1.60;;;11.00;91.10;;;;;;10253821;28;20230;-58
2024/04/02 05:50:18;;;;;;;4.20;1.77;;;11.00;91.30;;;;;;10265223;28;20297;-58
2024/04/02 05:55:21;;;;;;;3.05;1.40;;;10.90;91.20;;;;;;10260870;28;20333;-58
2024/04/02 06:00:28;;;;;;;4.03;1.58;;;10.90;91.60;;;;;;10258447;28;20257;-58
2024/04/02 06:05:30;;;;;;;4.28;1.52;;;10.90;91.70;;;;;;10257883;28;20356;-59
2024/04/02 06:10:33;;;;;;;5.15;1.60;;;10.90;91.60;;;;;;10260573;28;20413;-59
2024/04/02 06:15:37;;;;;;;2.72;1.45;;;10.90;91.80;;;;;;10261382;28;20780;-59
2024/04/02 06:20:40;;;;;;;3.05;1.58;;;10.90;92.10;;;;;;10232854;28;20764;-60
2024/04/02 06:25:48;;;;;;;4.88;1.95;;;11.00;92.10;;;;;;10211016;28;20454;-65
2024/04/02 06:30:52;;;;;;;5.03;1.60;;;11.10;92.20;;;;;;10205791;28;20575;-62
2024/04/02 06:35:55;;;;;;;4.00;1.50;;;11.00;91.90;;;;;;10201676;28;20226;-62
2024/04/02 06:40:57;;;;;;;4.50;1.60;;;11.10;92.30;;;;;;10202787;28;20628;-63
2024/04/02 06:46:01;;;;;;;4.80;1.50;;;11.10;92.40;;;;;;10209652;28;20234;-63
2024/04/02 06:51:07;;;;;;;4.00;1.70;;;11.10;92.20;;;;;;10214705;28;20842;-64
2024/04/02 06:56:10;;;;;;;5.85;2.33;;;11.20;92.40;;;;;;10209242;28;20234;-62
2024/04/02 07:01:14;;;;;;;2.80;2.00;;;11.20;92.40;;;;;;10202658;28;20241;-62
2024/04/02 07:06:16;;;;;;;12.98;3.00;;;11.20;92.10;;;;;;10202783;28;20771;-63
2024/04/02 07:11:19;;;;;;;5.82;1.88;;;11.30;92.00;;;;;;10202536;28;20213;-62
2024/04/02 07:16:23;;;;;;;4.03;1.70;;;11.30;91.90;;;;;;10201266;28;20226;-63
2024/04/02 07:21:26;;;;;;;6.65;2.00;;;11.30;91.70;;;;;;10201071;28;20292;-64
2024/04/02 07:26:29;;;;;;;7.35;1.90;;;11.40;91.60;;;;;;10199702;28;20238;-63
2024/04/02 07:31:33;;;;;;;7.07;2.10;;;11.40;91.50;;;;;;10199057;28;20304;-63
2024/04/02 07:36:36;;;;;;;7.70;2.30;;;11.40;91.50;;;;;;10196102;28;20305;-63
2024/04/02 07:41:38;;;;;;;7.43;2.13;;;11.50;91.20;;;;;;10196792;28;20210;-64
2024/04/02 07:46:42;;;;;;;10.10;2.65;;;11.60;91.20;;;;;;10197600;28;20316;-63
2024/04/02 07:51:45;;;;;;;8.40;2.80;;;11.60;91.00;;;;;;10197520;28;20218;-64
2024/04/02 07:56:48;;;;;;;7.15;2.10;;;11.70;90.90;;;;;;10198377;28;20325;-63
2024/04/02 08:01:52;;;;;;;8.65;2.00;;;11.70;90.60;;;;;;10197988;28;20218;-64
2024/04/02 08:06:54;;;;;;;10.80;1.90;;;11.80;90.60;;;;;;10197414;28;20234;-64
2024/04/02 08:11:57;;;;;;;7.78;1.90;;;11.80;90.40;;;;;;10202032;28;20763;-63
2024/04/02 08:17:02;;;;;;;12.18;2.30;;;11.80;90.00;;;;;;10197394;28;20301;-63
2024/04/02 08:22:05;;;;;;;9.80;2.42;;;11.90;90.10;;;;;;10201666;28;20253;-63
2024/04/02 08:27:07;;;;;;;6.68;1.95;;;11.90;89.40;;;;;;10198314;28;20217;-63
2024/04/02 08:32:12;;;;;;;6.97;1.92;;;11.90;89.40;;;;;;10197592;28;20676;-61
2024/04/02 08:37:14;;;;;;;9.82;1.88;;;11.90;89.50;;;;;;10198978;28;20300;-64
2024/04/02 08:42:20;;;;;;;4.95;1.65;;;11.80;89.10;;;;;;10199559;28;20206;-64
2024/04/02 08:47:25;;;;;;;7.28;1.85;;;11.80;89.10;;;;;;10200169;28;20293;-64
2024/04/02 08:52:27;;;;;;;5.55;1.90;;;11.70;90.10;;;;;;10200377;28;20218;-64
2024/04/02 08:57:31;;;;;;;9.38;1.75;;;11.70;88.80;;;;;;10239394;22;21282;-65
2024/04/02 09:02:36;;;;;;;7.30;1.90;;;11.80;88.90;;;;;;10266465;28;20216;-65
2024/04/02 09:07:38;;;;;;;11.40;2.22;;;11.90;88.90;;;;;;10268481;28;20221;-65
2024/04/02 09:12:41;;;;;;;5.47;1.60;;;12.00;88.80;;;;;;10267708;28;20278;-65
2024/04/02 09:17:45;;;;;;;5.32;1.85;;;12.10;88.00;;;;;;10267187;28;20232;-65
2024/04/02 09:22:48;;;;;;;8.50;1.77;;;12.10;88.00;;;;;;10266535;28;20661;-65
2024/04/02 09:27:50;;;;;;;6.97;1.55;;;12.10;87.20;;;;;;10266967;28;20266;-65
2024/04/02 09:33:02;;;;;;;6.32;1.70;;;12.10;85.80;;;;;;10267229;28;20212;-62
2024/04/02 09:38:07;;;;;;;5.90;1.80;;;12.20;86.90;;;;;;10265720;28;20271;-65
2024/04/02 09:43:12;;;;;;;5.88;1.90;;;12.20;85.90;;;;;;10267965;28;20209;-66
2024/04/02 09:48:18;;;;;;;5.97;1.50;;;12.20;86.10;;;;;;10270924;28;20880;-65
2024/04/02 09:53:22;;;;;;;8.35;1.88;;;12.20;86.30;;;;;;10267575;28;20786;-67
2024/04/02 09:58:25;;;;;;;6.60;1.30;;;12.30;86.30;;;;;;10267976;28;20229;-66
2024/04/02 10:03:31;;;;;;;7.15;1.50;;;12.30;86.00;;;;;;10270109;28;20276;-66
2024/04/02 10:08:36;;;;;;;7.15;1.80;;;12.30;85.00;;;;;;10272053;28;20228;-66
2024/04/02 10:13:39;;;;;;;5.57;1.30;;;12.30;86.20;;;;;;10271761;28;20224;-66
2024/04/02 10:18:45;;;;;;;7.57;1.60;;;12.30;85.80;;;;;;10272008;28;20298;-63
2024/04/02 10:23:47;;;;;;;6.40;1.80;;;12.50;86.40;;;;;;10271816;28;20278;-67
2024/04/02 10:28:54;;;;;;;4.60;1.80;;;12.60;86.20;;;;;;10271944;28;21637;-67
2024/04/02 10:33:58;;;;;;;6.53;1.60;;;12.70;85.80;;;;;;10272260;28;20217;-67
2024/04/02 10:39:01;;;;;;;6.88;1.60;;;12.70;85.70;;;;;;10271062;28;20259;-66
2024/04/02 10:44:04;;;;;;;5.55;1.30;;;12.60;85.20;;;;;;10271166;28;20212;-67
2024/04/02 10:49:08;;;;;;;3.60;1.13;;;12.60;85.00;;;;;;10271358;28;21738;-66
2024/04/02 10:54:11;;;;;;;6.10;1.30;;;12.60;85.30;;;;;;10271590;28;20287;-65
2024/04/02 10:59:13;;;;;;;5.80;1.42;;;12.80;85.50;;;;;;10267742;28;20229;-65
2024/04/02 11:04:17;;;;;;;6.68;1.50;;;13.00;85.10;;;;;;10264217;28;20217;-64
2024/04/02 11:09:22;;;;;;;6.32;1.73;;;13.30;85.50;;;;;;10265951;28;20229;-65
2024/04/02 11:14:28;;;;;;;3.42;1.25;;;13.40;84.10;;;;;;10265898;28;20209;-66
2024/04/02 11:19:32;;;;;;;5.10;1.88;;;13.70;83.40;;;;;;10265566;28;20609;-67
2024/04/02 11:29:55;;;;;;;3.35;1.35;;;13.70;83.50;;;;;;10265131;28;20232;-68
2024/04/02 11:35:01;;;;;;;3.35;1.30;;;13.70;84.00;;;;;;10263548;28;20302;-67
2024/04/02 11:40:04;;;;;;;3.95;1.17;;;13.70;83.70;;;;;;10267028;28;20693;-67
2024/04/02 11:45:08;;;;;;;4.95;1.45;;;13.60;83.20;;;;;;10264278;28;20216;-66
2024/04/02 11:50:12;;;;;;;10.20;1.52;;;13.60;83.90;;;;;;10257147;28;20720;-67
2024/04/02 11:55:15;;;;;;;4.70;1.42;;;13.60;84.80;;;;;;10267030;28;20754;-65
2024/04/02 12:00:17;;;;;;;3.40;1.38;;;13.70;84.40;;;;;;10256693;28;20286;-67
2024/04/02 12:05:21;;;;;;;5.63;1.23;;;13.60;84.10;;;;;;10259272;28;20307;-65
2024/04/02 12:10:24;;;;;;;4.13;1.20;;;13.40;84.40;;;;;;10260816;28;20310;-67
2024/04/02 12:15:27;;;;;;;5.32;1.80;;;13.20;86.00;;;;;;10263731;28;20251;-67
2024/04/02 12:20:31;;;;;;;3.92;1.17;;;13.10;86.50;;;;;;10263046;28;20745;-67
2024/04/02 12:25:33;;;;;;;2.55;1.20;;;13.00;86.90;;;;;;10264223;28;20262;-67
2024/04/02 12:30:36;;;;;;;4.85;1.45;;;12.80;87.80;;;;;;10262742;28;20317;-66
2024/04/02 12:35:40;;;;;;;3.97;1.20;;;12.70;89.10;;;;;;10269885;28;21943;-72
2024/04/02 12:40:43;;;;;;;4.20;1.23;;;12.60;90.00;;;;;;10274588;28;21678;-67
2024/04/02 12:45:51;;;;;;;4.10;1.50;;;12.70;90.20;;;;;;10272379;28;20217;-67
2024/04/02 12:50:56;;;;;;;4.97;1.42;;;12.70;90.40;;;;;;10273112;28;20233;-69
2024/04/02 12:55:58;;;;;;;3.92;1.50;;;12.70;90.30;;;;;;10270750;28;20586;-68
2024/04/02 13:01:03;;;;;;;4.47;1.48;;;12.60;90.90;;;;;;10270161;28;21083;-66
2024/04/02 13:06:08;;;;;;;3.47;1.48;;;12.40;91.50;;;;;;10268919;28;20252;-66
2024/04/02 13:11:11;;;;;;;5.03;1.90;;;12.30;91.70;;;;;;10276322;28;20283;-67
2024/04/02 13:16:32;;;;;;;4.47;2.35;;;12.10;92.10;;;;;;10269714;28;20861;-67
2024/04/02 13:21:37;;;;;;;9.13;2.45;;;12.00;92.90;;;;;;10270875;28;20299;-67
2024/04/02 13:26:39;;;;;;;3.42;1.70;;;12.10;92.50;;;;;;10271507;28;20241;-68
2024/04/02 13:31:42;;;;;;;7.35;3.70;;;12.20;92.70;;;;;;10273382;28;21372;-68
2024/04/02 13:36:46;;;;;;;5.45;2.55;;;12.30;92.50;;;;;;10272011;28;20723;-67
2024/04/02 13:41:51;;;;;;;6.35;2.13;;;12.50;92.60;;;;;;10270550;28;21609;-67
2024/04/02 13:46:54;;;;;;;5.60;1.90;;;12.50;92.80;;;;;;10270126;28;20237;-66
2024/04/02 13:52:00;;;;;;;5.13;1.50;;;12.60;92.60;;;;;;10270887;28;20263;-67
2024/04/02 13:57:03;;;;;;;5.68;1.50;;;12.70;92.40;;;;;;10270316;28;20228;-68
2024/04/02 14:02:06;;;;;;;2.38;1.42;;;12.90;92.30;;;;;;10271220;28;20307;-68
2024/04/02 14:07:11;;;;;;;4.68;1.42;;;13.20;91.90;;;;;;10271006;28;21036;-67
2024/04/02 14:12:13;;;;;;;4.93;1.75;;;13.20;91.90;;;;;;10270579;28;20278;-67
2024/04/02 14:17:16;;;;;;;5.40;1.48;;;13.30;91.90;;;;;;10269968;28;20236;-67
2024/04/02 14:22:20;;;;;;;5.45;1.85;;;13.60;91.70;;;;;;10270679;28;20228;-67
2024/04/02 14:27:23;;;;;;;8.45;2.03;;;14.40;91.10;;;;;;10267639;28;20225;-68
2024/04/02 14:32:26;;;;;;;6.85;1.60;;;14.90;90.40;;;;;;10275395;28;20213;-67
2024/04/02 14:37:30;;;;;;;5.45;1.52;;;14.70;90.20;;;;;;10266564;28;20287;-66
2024/04/02 14:42:32;;;;;;;5.53;1.83;;;14.30;90.20;;;;;;10268935;28;20237;-67
2024/04/02 14:47:35;;;;;;;4.85;1.70;;;14.10;90.60;;;;;;10268752;28;22342;-67
2024/04/02 14:52:39;;;;;;;7.80;2.50;;;13.90;90.20;;;;;;10266745;28;20243;-69
2024/04/02 14:57:41;;;;;;;7.30;2.40;;;13.70;90.90;;;;;;10266269;28;20279;-70
2024/04/02 15:02:44;;;;;;;6.78;2.80;;;13.60;91.10;;;;;;10270294;28;20233;-68
2024/04/02 15:07:48;;;;;;;6.32;2.45;;;13.50;91.10;;;;;;10270247;28;21903;-70
2024/04/02 15:12:51;;;;;;;8.00;2.60;;;13.30;91.50;;;;;;10268102;28;20205;-68
2024/04/02 15:17:54;;;;;;;6.85;2.50;;;13.30;91.80;;;;;;10269254;28;20225;-68
2024/04/02 15:22:58;;;;;;;8.95;3.70;;;13.20;91.80;;;;;;10268919;28;20255;-68
2024/04/02 15:28:00;;;;;;;10.80;3.15;;;13.20;91.90;;;;;;10269474;28;20228;-68
2024/04/02 15:33:03;;;;;;;8.43;2.92;;;13.30;91.60;;;;;;10268869;28;20282;-69
2024/04/02 15:38:07;;;;;;;22.77;17.58;;;13.50;91.60;;;;;;10268377;28;20212;-68
2024/04/02 15:43:10;;;;;;;20.13;12.32;;;13.70;91.50;;;;;;10268515;28;20310;-67
2024/04/02 15:48:12;;;;;;;5.93;1.95;;;13.90;91.20;;;;;;10268264;28;20258;-68
2024/04/02 15:53:16;;;;;;;3.80;1.63;;;13.80;91.10;;;;;;10269073;28;20279;-66
2024/04/02 15:58:20;;;;;;;7.03;2.00;;;13.60;91.20;;;;;;10268889;28;20241;-68
2024/04/02 16:03:23;;;;;;;6.07;2.13;;;13.50;91.30;;;;;;10269781;28;20723;-68
2024/04/02 16:08:26;;;;;;;5.43;1.90;;;13.50;91.60;;;;;;10268981;28;20301;-67
2024/04/02 16:13:29;;;;;;;6.25;2.28;;;13.50;91.50;;;;;;10266948;28;20220;-67
2024/04/02 16:18:33;;;;;;;7.70;2.17;;;13.30;91.60;;;;;;10268583;28;22010;-68
2024/04/02 16:23:37;;;;;;;5.03;1.90;;;13.20;91.60;;;;;;10267910;28;21057;-68
2024/04/02 16:28:40;;;;;;;8.60;2.33;;;13.10;91.70;;;;;;10267881;28;20236;-68
2024/04/02 16:33:42;;;;;;;5.30;2.05;;;13.10;91.60;;;;;;10267501;28;20208;-67
2024/04/02 16:38:47;;;;;;;8.80;2.00;;;13.10;91.70;;;;;;10266554;28;20228;-68
2024/04/02 16:43:51;;;;;;;5.35;1.70;;;13.10;91.60;;;;;;10267719;28;20240;-67
2024/04/02 16:48:56;;;;;;;5.20;1.73;;;13.10;91.50;;;;;;10266982;28;20299;-67
2024/04/02 16:54:01;;;;;;;5.72;2.10;;;13.00;91.60;;;;;;10267596;28;20201;-68
2024/04/02 16:59:04;;;;;;;5.95;1.90;;;13.00;91.50;;;;;;10267456;28;20225;-69
2024/04/02 17:04:07;;;;;;;4.70;1.80;;;12.90;91.50;;;;;;10267497;28;20315;-69
2024/04/02 17:09:11;;;;;;;4.80;1.83;;;12.90;91.60;;;;;;10266707;28;20314;-76
2024/04/02 17:14:14;;;;;;;5.80;1.88;;;13.00;91.50;;;;;;10267157;28;20287;-69
2024/04/02 17:19:17;;;;;;;7.88;2.00;;;12.90;91.80;;;;;;10267958;28;20232;-68
2024/04/02 17:24:21;;;;;;;6.57;1.90;;;12.90;91.80;;;;;;10274293;28;20229;-68
2024/04/02 17:29:23;;;;;;;7.82;1.95;;;12.80;92.10;;;;;;10274361;28;21199;-67
2024/04/02 17:34:27;;;;;;;6.03;2.15;;;12.80;92.20;;;;;;10274193;28;20204;-68
2024/04/02 17:39:31;;;;;;;5.40;2.58;;;12.70;92.40;;;;;;10274242;28;20271;-69
2024/04/02 17:44:34;;;;;;;8.77;2.20;;;12.70;92.50;;;;;;10273339;28;20290;-69
2024/04/02 17:49:38;;;;;;;10.50;2.50;;;12.60;92.40;;;;;;10273331;28;20237;-68
2024/04/02 17:54:42;;;;;;;5.80;2.00;;;12.60;92.70;;;;;;10272601;28;20700;-68
2024/04/02 17:59:47;;;;;;;7.53;2.00;;;12.50;92.60;;;;;;10271750;28;20302;-68
2024/04/02 18:04:50;;;;;;;6.28;2.35;;;12.40;92.60;;;;;;10272999;28;20205;-68
2024/04/02 18:09:54;;;;;;;5.43;2.22;;;12.40;92.80;;;;;;10272578;28;20224;-67
2024/04/02 18:14:57;;;;;;;8.25;2.80;;;12.20;93.10;;;;;;10273666;28;20252;-68
2024/04/02 18:19:59;;;;;;;7.53;2.50;;;12.20;93.40;;;;;;10273273;28;20263;-68
2024/04/02 18:25:04;;;;;;;7.25;2.60;;;12.20;93.80;;;;;;10271754;28;20232;-68
2024/04/02 18:30:07;;;;;;;8.68;2.92;;;12.20;93.50;;;;;;10270223;28;20248;-68
2024/04/02 18:35:10;;;;;;;8.50;3.17;;;12.20;93.60;;;;;;10270590;28;20295;-67
2024/04/02 18:40:14;;;;;;;7.32;3.13;;;12.20;93.50;;;;;;10269772;28;20569;-68
2024/04/02 18:45:17;;;;;;;8.77;3.63;;;12.20;93.80;;;;;;10269181;28;20213;-69
2024/04/02 18:50:19;;;;;;;6.47;2.80;;;12.20;94.00;;;;;;10268324;28;20232;-67
2024/04/02 18:55:23;;;;;;;9.73;3.67;;;12.20;93.80;;;;;;10269409;28;20209;-67
2024/04/02 19:00:29;;;;;;;11.43;4.15;;;12.20;94.00;;;;;;10270311;28;21563;-66
2024/04/02 19:05:31;;;;;;;10.00;3.00;;;12.10;94.00;;;;;;10274460;28;20201;-67
2024/04/02 19:10:39;;;;;;;10.98;2.90;;;12.20;94.40;;;;;;10270094;28;20255;-67
2024/04/02 19:15:47;;;;;;;6.72;2.80;;;12.10;93.90;;;;;;10269941;28;20577;-66
2024/04/02 19:20:55;;;;;;;7.63;2.30;;;12.10;93.60;;;;;;10269224;28;20232;-67
2024/04/02 19:26:00;;;;;;;10.13;2.95;;;12.10;93.50;;;;;;10268154;28;20212;-66
2024/04/02 19:31:07;;;;;;;8.05;2.42;;;12.10;93.50;;;;;;10267790;28;21391;-67
2024/04/02 19:36:09;;;;;;;8.23;2.70;;;12.10;93.40;;;;;;10268441;28;20288;-68
2024/04/02 19:41:15;;;;;;;10.85;2.72;;;12.00;93.20;;;;;;10267264;28;20252;-67
2024/04/02 19:46:17;;;;;;;11.32;3.17;;;12.00;93.20;;;;;;10267196;28;20201;-66
2024/04/02 19:51:21;;;;;;;9.15;3.25;;;12.00;93.30;;;;;;10267728;28;20283;-66
2024/04/02 19:56:25;;;;;;;7.80;2.75;;;12.00;93.20;;;;;;10264976;28;20212;-67
2024/04/02 20:01:28;;;;;;;8.43;2.78;;;11.90;93.10;;;;;;10265471;28;20224;-66
2024/04/02 20:06:30;;;;;;;9.32;3.30;;;11.90;93.40;;;;;;10265602;28;20289;-66
2024/04/02 20:11:34;;;;;;;12.15;2.80;;;11.90;93.40;;;;;;10265742;28;20209;-66
2024/04/02 20:16:37;;;;;;;7.95;3.00;;;11.90;93.20;;;;;;10268152;28;20228;-66
2024/04/02 20:21:40;;;;;;;9.45;3.10;;;11.80;93.20;;;;;;10269297;28;20224;-66
2024/04/02 20:26:44;;;;;;;9.43;3.05;;;11.80;93.30;;;;;;10266414;28;20294;-66
2024/04/02 20:31:46;;;;;;;9.90;2.90;;;11.80;93.20;;;;;;10266482;28;20205;-66
2024/04/02 20:36:49;;;;;;;9.32;2.78;;;11.70;93.60;;;;;;10266447;28;21995;-66
2024/04/02 20:41:53;;;;;;;8.07;3.05;;;11.70;93.20;;;;;;10266123;28;20228;-68
2024/04/02 20:46:55;;;;;;;10.77;3.38;;;11.70;93.30;;;;;;10264839;28;20302;-69
2024/04/02 20:51:58;;;;;;;8.95;3.15;;;11.60;93.30;;;;;;10266292;28;20209;-69
2024/04/02 20:57:02;;;;;;;8.23;3.13;;;11.60;93.30;;;;;;10270850;28;20236;-68
2024/04/02 21:02:05;;;;;;;9.27;3.13;;;11.60;93.50;;;;;;10273475;28;20212;-70
2024/04/02 21:07:10;;;;;;;8.93;3.20;;;11.60;93.30;;;;;;10277207;28;20283;-70
2024/04/02 21:12:14;;;;;;;9.63;3.20;;;11.50;93.40;;;;;;10275383;28;20201;-68
2024/04/02 21:17:17;;;;;;;11.68;4.15;;;11.50;93.40;;;;;;10273087;28;20326;-67
2024/04/02 21:22:19;;;;;;;9.75;3.85;;;11.50;93.50;;;;;;10273922;28;20229;-71
2024/04/02 21:27:23;;;;;;;8.88;3.70;;;11.50;93.60;;;;;;10273157;28;20232;-67
2024/04/02 21:32:26;;;;;;;8.07;3.03;;;11.50;93.80;;;;;;10273629;28;20213;-67
2024/04/02 21:37:29;;;;;;;10.90;3.45;;;11.60;93.70;;;;;;10271917;28;20370;-70
2024/04/02 21:42:33;;;;;;;6.30;2.90;;;11.50;93.60;;;;;;10273355;28;20233;-72
2024/04/02 21:47:59;;;;;;;9.55;3.47;;;11.60;93.80;;;;;;10271712;28;20330;-73
2024/04/02 21:53:02;;;;;;;11.85;3.08;;;11.60;93.80;;;;;;10272283;28;20623;-70
2024/04/02 21:58:06;;;;;;;9.20;2.80;;;11.60;93.70;;;;;;10270549;28;21378;-71
2024/04/02 22:03:09;;;;;;;12.50;3.17;;;11.70;93.90;;;;;;10271086;28;20236;-70
2024/04/02 22:08:12;;;;;;;9.75;2.67;;;11.70;93.90;;;;;;10270469;28;20217;-72
2024/04/02 22:13:16;;;;;;;8.45;3.25;;;11.70;93.90;;;;;;10270115;28;20290;-69
2024/04/02 22:18:19;;;;;;;9.65;2.55;;;11.70;93.70;;;;;;10271072;28;20968;-70
2024/04/02 22:23:21;;;;;;;9.63;3.28;;;11.70;93.80;;;;;;10269753;28;20228;-71
2024/04/02 22:28:25;;;;;;;9.45;2.90;;;11.80;93.70;;;;;;10271180;28;20229;-71
2024/04/02 22:33:28;;;;;;;7.82;3.08;;;11.80;93.60;;;;;;10270808;28;21299;-70
2024/04/02 22:38:31;;;;;;;7.93;2.92;;;11.80;93.70;;;;;;10268667;28;20233;-70
2024/04/02 22:43:34;;;;;;;6.93;2.58;;;11.80;93.80;;;;;;10270680;28;20229;-72
2024/04/02 22:48:37;;;;;;;7.00;2.65;;;11.80;93.70;;;;;;10272095;28;20842;-72
2024/04/02 22:53:40;;;;;;;9.73;2.92;;;11.80;93.70;;;;;;10272154;28;20201;-70
2024/04/02 22:58:44;;;;;;;7.32;2.30;;;11.80;93.90;;;;;;10271719;28;21165;-73
2024/04/02 23:03:46;;;;;;;8.00;2.67;;;11.80;93.70;;;;;;10272300;28;20233;-72
2024/04/02 23:08:49;;;;;;;6.68;2.85;;;11.80;93.60;;;;;;10271231;28;21702;-71
2024/04/02 23:13:53;;;;;;;10.75;2.42;;;11.80;93.80;;;;;;10272572;28;20213;-70
2024/04/02 23:18:55;;;;;;;6.57;2.40;;;11.80;93.40;;;;;;10269320;28;20647;-70
2024/04/02 23:23:58;;;;;;;6.93;2.15;;;11.80;93.50;;;;;;10271961;28;20228;-67
2024/04/02 23:29:02;;;;;;;4.63;2.30;;;11.80;93.40;;;;;;10268280;28;20232;-70
2024/04/02 23:34:04;;;;;;;7.10;2.10;;;11.80;93.50;;;;;;10269296;28;20278;-72
2024/04/02 23:39:07;;;;;;;5.50;2.17;;;11.90;93.70;;;;;;10268953;28;20255;-68
2024/04/02 23:44:11;;;;;;;4.28;1.95;;;11.80;93.80;;;;;;10268961;28;20232;-71
2024/04/02 23:49:13;;;;;;;6.90;2.42;;;11.80;94.30;;;;;;10268109;28;20306;-71
2024/04/02 23:54:16;;;;;;;6.53;2.17;;;11.70;94.40;;;;;;10270890;28;20209;-66
2024/04/02 23:59:20;;;;;;;6.53;2.10;;;11.70;94.30;;;;;;10269205;28;20240;-74
